createdAt,value
2022-09-02T00:00:56.376Z,293.85
2022-09-02T00:03:23.041Z,289.95
2022-09-02T00:05:51.416Z,295.60
2022-09-02T00:08:17.795Z,295.45
2022-09-02T00:10:44.202Z,281.38
2022-09-02T00:13:10.609Z,283.52
2022-09-02T00:15:37.006Z,285.80
2022-09-02T00:18:03.325Z,275.38
2022-09-02T00:20:29.850Z,280.10
2022-09-02T00:22:56.156Z,274.30
2022-09-02T00:25:22.583Z,269.85
2022-09-02T00:27:48.974Z,275.23
2022-09-02T00:30:15.532Z,270.08
2022-09-02T00:32:41.876Z,268.50
2022-09-02T00:35:08.286Z,258.20
2022-09-02T00:37:34.677Z,251.00
2022-09-02T00:40:01.049Z,258.08
2022-09-02T00:42:27.506Z,258.20
2022-09-02T00:44:53.840Z,249.40
2022-09-02T00:47:21.570Z,246.63
2022-09-02T00:49:47.985Z,237.77
2022-09-02T00:52:14.489Z,244.73
2022-09-02T00:54:40.936Z,240.02
2022-09-02T00:57:07.213Z,233.82
2022-09-02T00:59:33.514Z,243.57
2022-09-02T01:02:00.053Z,237.60
2022-09-02T01:04:26.850Z,229.40
2022-09-02T01:06:53.373Z,229.55
2022-09-02T01:09:19.726Z,232.60
2022-09-02T01:11:46.057Z,220.85
2022-09-02T01:14:12.419Z,223.63
2022-09-02T01:16:38.875Z,216.95
2022-09-02T01:19:08.512Z,211.38
2022-09-02T01:21:37.793Z,210.27
2022-09-02T01:24:04.102Z,216.18
2022-09-02T01:26:30.487Z,215.50
2022-09-02T01:28:56.953Z,215.30
2022-09-02T01:31:23.568Z,207.30
2022-09-02T01:33:49.935Z,201.75
2022-09-02T01:36:17.145Z,202.90
2022-09-02T01:38:43.801Z,194.15
2022-09-02T01:41:10.216Z,195.73
2022-09-02T01:43:37.010Z,197.75
2022-09-02T01:46:03.348Z,201.82
2022-09-02T01:48:29.949Z,191.38
2022-09-02T01:50:56.363Z,184.70
2022-09-02T01:53:22.906Z,195.15
2022-09-02T01:55:49.626Z,189.85
2022-09-02T01:58:15.935Z,183.63
2022-09-02T02:00:42.458Z,180.75
2022-09-02T02:03:08.949Z,180.38
2022-09-02T02:05:36.051Z,178.48
2022-09-02T02:08:02.406Z,171.27
2022-09-02T02:10:30.256Z,172.20
2022-09-02T02:12:56.616Z,171.00
2022-09-02T02:17:49.581Z,162.32
2022-09-02T02:20:16.056Z,165.55
2022-09-02T02:22:42.637Z,163.25
2022-09-02T02:25:09.028Z,162.10
2022-09-02T02:27:35.447Z,164.35
2022-09-02T02:30:04.188Z,158.45
2022-09-02T02:32:30.814Z,159.93
2022-09-02T02:34:57.137Z,156.30
2022-09-02T02:37:25.656Z,155.88
2022-09-02T02:39:52.095Z,152.77
2022-09-02T02:42:18.451Z,152.65
2022-09-02T02:44:44.770Z,146.20
2022-09-02T02:47:11.186Z,148.30
2022-09-02T02:49:37.677Z,146.63
2022-09-02T02:52:04.151Z,141.40
2022-09-02T02:54:34.962Z,139.85
2022-09-02T02:57:01.889Z,135.90
2022-09-02T02:59:29.829Z,141.55
2022-09-02T03:01:56.385Z,137.77
2022-09-02T03:04:22.918Z,137.18
2022-09-02T03:06:49.303Z,132.25
2022-09-02T03:09:15.665Z,128.10
2022-09-02T03:11:42.041Z,131.73
2022-09-02T03:14:08.446Z,131.80
2022-09-02T03:16:34.991Z,126.07
2022-09-02T03:19:01.336Z,123.35
2022-09-02T03:21:27.768Z,124.15
2022-09-02T03:23:54.279Z,125.28
2022-09-02T03:26:24.217Z,122.18
2022-09-02T03:28:50.567Z,122.68
2022-09-02T03:31:16.950Z,119.82
2022-09-02T03:33:43.660Z,118.78
2022-09-02T03:36:10.008Z,119.20
2022-09-02T03:38:36.379Z,118.32
2022-09-02T03:41:02.728Z,115.60
2022-09-02T03:43:29.317Z,114.03
2022-09-02T03:45:55.759Z,115.10
2022-09-02T03:48:22.215Z,112.75
2022-09-02T03:50:48.796Z,110.90
2022-09-02T03:53:19.572Z,111.32
2022-09-02T03:55:46.629Z,109.97
2022-09-02T03:58:15.752Z,108.45
2022-09-02T04:00:42.808Z,106.65
2022-09-02T04:03:09.286Z,108.03
2022-09-02T04:05:36.153Z,105.80
2022-09-02T04:08:02.509Z,102.13
2022-09-02T04:10:29.077Z,102.90
2022-09-02T04:12:55.806Z,104.18
2022-09-02T04:15:22.201Z,101.00
2022-09-02T04:17:48.546Z,98.38
2022-09-02T04:20:15.147Z,96.53
2022-09-02T04:22:41.620Z,99.82
2022-09-02T04:25:08.019Z,96.32
2022-09-02T04:27:34.401Z,95.53
2022-09-02T04:30:00.781Z,92.55
2022-09-02T04:32:27.136Z,94.10
2022-09-02T04:34:53.660Z,93.70
2022-09-02T04:37:20.061Z,97.32
2022-09-02T04:39:46.446Z,93.95
2022-09-02T04:42:12.860Z,90.43
2022-09-02T04:44:39.223Z,89.95
2022-09-02T04:47:05.541Z,88.90
2022-09-02T04:49:31.900Z,88.18
2022-09-02T04:51:58.310Z,88.78
2022-09-02T04:54:24.793Z,86.57
2022-09-02T04:56:51.269Z,85.88
2022-09-02T04:59:17.604Z,83.68
2022-09-02T05:01:44.159Z,83.15
2022-09-02T05:04:11.258Z,79.28
2022-09-02T05:06:41.900Z,78.95
2022-09-02T05:09:10.316Z,79.13
2022-09-02T05:11:36.597Z,79.25
2022-09-02T05:14:03.029Z,77.68
2022-09-02T05:16:29.448Z,76.65
2022-09-02T05:18:55.769Z,77.47
2022-09-02T05:21:22.077Z,77.07
2022-09-02T05:23:48.633Z,75.13
2022-09-02T05:26:14.939Z,69.38
2022-09-02T05:28:41.269Z,54.85
2022-09-02T05:31:07.777Z,48.00
2022-09-02T05:33:34.274Z,42.35
2022-09-02T05:36:00.610Z,37.95
2022-09-02T05:38:26.918Z,50.05
2022-09-02T05:40:53.323Z,49.97
2022-09-02T05:43:19.696Z,48.67
2022-09-02T05:45:46.087Z,48.95
2022-09-02T05:48:12.637Z,46.47
2022-09-02T05:50:41.411Z,44.53
2022-09-02T05:53:11.110Z,44.25
2022-09-02T05:55:41.797Z,42.63
2022-09-02T05:58:08.269Z,42.83
2022-09-02T06:00:34.621Z,42.13
2022-09-02T06:03:01.073Z,27.50
2022-09-02T06:05:27.456Z,18.95
2022-09-02T06:07:53.773Z,15.88
2022-09-02T06:10:23.668Z,10.88
2022-09-02T06:12:50.198Z,11.73
2022-09-02T06:15:16.593Z,12.05
2022-09-02T06:17:43.150Z,14.20
2022-09-02T06:20:10.370Z,12.82
2022-09-02T06:22:39.079Z,14.37
2022-09-02T06:25:06.667Z,14.23
2022-09-02T06:27:33.077Z,12.02
2022-09-02T06:29:59.454Z,13.25
2022-09-02T06:32:25.719Z,13.57
2022-09-02T06:34:52.019Z,14.10
2022-09-02T06:37:18.437Z,14.30
2022-09-02T06:39:44.795Z,16.83
2022-09-02T06:42:11.129Z,15.32
2022-09-02T06:44:37.634Z,12.85
2022-09-02T06:47:03.968Z,13.98
2022-09-02T06:49:30.347Z,16.38
2022-09-02T06:51:57.802Z,12.57
2022-09-02T06:54:24.193Z,14.57
2022-09-02T06:56:50.549Z,15.18
2022-09-02T06:59:16.825Z,12.43
2022-09-02T07:01:43.597Z,13.10
2022-09-02T07:04:10.036Z,13.30
2022-09-02T07:06:36.457Z,12.20
2022-09-02T07:09:02.798Z,13.32
2022-09-02T07:11:29.176Z,11.25
2022-09-02T07:13:55.555Z,13.10
2022-09-02T07:16:26.686Z,13.93
2022-09-02T07:18:53.494Z,11.57
2022-09-02T07:21:19.921Z,12.68
2022-09-02T07:23:46.433Z,12.45
2022-09-02T07:26:12.806Z,11.07
2022-09-02T07:28:39.192Z,12.63
2022-09-02T07:31:05.741Z,11.82
2022-09-02T07:33:32.291Z,11.00
2022-09-02T07:35:58.653Z,12.00
2022-09-02T07:38:24.989Z,11.43
2022-09-02T07:40:56.812Z,10.38
2022-09-02T07:43:23.864Z,12.52
2022-09-02T07:45:50.467Z,12.38
2022-09-02T07:48:17.186Z,11.25
2022-09-02T07:50:43.697Z,11.48
2022-09-02T07:53:10.005Z,11.15
2022-09-02T07:55:36.443Z,9.80
2022-09-02T07:58:03.112Z,11.07
2022-09-02T08:00:29.885Z,11.32
2022-09-02T08:02:56.399Z,10.23
2022-09-02T08:05:22.849Z,9.68
2022-09-02T08:07:49.181Z,9.88
2022-09-02T08:10:15.490Z,9.70
2022-09-02T08:12:41.901Z,10.85
2022-09-02T08:15:08.292Z,10.30
2022-09-02T08:17:34.746Z,9.48
2022-09-02T08:20:02.085Z,9.75
2022-09-02T08:22:29.018Z,8.27
2022-09-02T08:24:55.806Z,7.85
2022-09-02T08:27:22.229Z,8.85
2022-09-02T08:29:48.593Z,8.80
2022-09-02T08:32:15.265Z,9.55
2022-09-02T08:34:41.737Z,8.75
2022-09-02T08:37:08.181Z,8.63
2022-09-02T08:39:34.593Z,7.85
2022-09-02T08:44:28.517Z,8.20
2022-09-02T08:46:55.023Z,7.75
2022-09-02T08:49:21.373Z,7.80
2022-09-02T08:51:47.645Z,7.88
2022-09-02T08:54:19.152Z,6.20
2022-09-02T08:56:45.586Z,6.95
2022-09-02T08:59:11.851Z,7.03
2022-09-02T09:01:38.192Z,6.13
2022-09-02T09:04:04.657Z,6.57
2022-09-02T09:06:30.970Z,6.88
2022-09-02T09:08:57.465Z,5.13
2022-09-02T09:11:24.032Z,8.32
2022-09-02T09:13:50.361Z,6.47
2022-09-02T09:16:17.159Z,7.68
2022-09-02T09:18:43.674Z,7.32
2022-09-02T09:21:10.500Z,7.22
2022-09-02T09:23:37.738Z,6.82
2022-09-02T09:26:04.053Z,6.95
2022-09-02T09:28:30.478Z,7.53
2022-09-02T09:30:56.906Z,6.93
2022-09-02T09:33:23.707Z,6.50
2022-09-02T09:35:50.115Z,6.78
2022-09-02T09:38:19.783Z,4.07
2022-09-02T09:40:46.459Z,6.38
2022-09-02T09:43:15.198Z,4.63
2022-09-02T09:45:42.133Z,7.15
2022-09-02T09:48:08.495Z,11.05
2022-09-02T09:50:34.850Z,8.15
2022-09-02T09:53:01.146Z,4.22
2022-09-02T09:55:27.534Z,5.70
2022-09-02T09:57:53.975Z,5.53
2022-09-02T10:00:20.362Z,6.50
2022-09-02T10:02:46.750Z,5.20
2022-09-02T10:05:13.080Z,5.90
2022-09-02T10:07:39.641Z,6.63
2022-09-02T10:10:09.068Z,4.60
2022-09-02T10:12:35.538Z,4.35
2022-09-02T10:15:01.964Z,4.95
2022-09-02T10:17:28.461Z,5.82
2022-09-02T10:19:54.910Z,4.10
2022-09-02T10:22:21.459Z,5.40
2022-09-02T10:24:47.753Z,5.70
2022-09-02T10:27:14.181Z,3.88
2022-09-02T10:29:40.555Z,6.43
2022-09-02T10:32:06.948Z,4.13
2022-09-02T10:34:33.291Z,6.93
2022-09-02T10:36:59.662Z,4.20
2022-09-02T10:39:26.082Z,4.95
2022-09-02T10:41:52.497Z,7.35
2022-09-02T10:44:19.138Z,3.30
2022-09-02T10:46:45.752Z,6.80
2022-09-02T10:49:12.161Z,3.72
2022-09-02T10:51:38.514Z,4.70
2022-09-02T10:54:04.933Z,3.78
2022-09-02T10:56:31.369Z,4.45
2022-09-02T10:58:57.733Z,5.25
2022-09-02T11:01:24.163Z,4.30
2022-09-02T11:03:51.453Z,3.72
2022-09-02T11:06:17.849Z,4.13
2022-09-02T11:08:44.284Z,6.15
2022-09-02T11:11:10.694Z,3.45
2022-09-02T11:13:37.254Z,3.53
2022-09-02T11:16:03.761Z,4.30
2022-09-02T11:18:30.221Z,4.53
2022-09-02T11:20:56.537Z,7.95
2022-09-02T11:23:22.980Z,3.50
2022-09-02T11:25:51.173Z,6.85
2022-09-02T11:28:17.694Z,6.35
2022-09-02T11:30:47.342Z,4.50
2022-09-02T11:33:15.663Z,5.25
2022-09-02T11:35:43.690Z,5.45
2022-09-02T11:38:10.032Z,3.75
2022-09-02T11:40:36.802Z,4.65
2022-09-02T11:43:05.436Z,7.57
2022-09-02T11:45:32.082Z,24.58
2022-09-02T11:47:58.533Z,49.00
2022-09-02T11:50:25.173Z,47.03
2022-09-02T11:52:53.972Z,41.13
2022-09-02T11:55:20.660Z,40.08
2022-09-02T11:57:47.172Z,36.17
2022-09-02T12:00:13.857Z,31.73
2022-09-02T12:02:40.750Z,27.05
2022-09-02T12:05:08.538Z,22.13
2022-09-02T12:07:35.561Z,21.20
2022-09-02T12:10:01.981Z,17.65
2022-09-02T12:12:28.732Z,19.95
2022-09-02T12:14:55.710Z,13.75
2022-09-02T12:17:22.298Z,13.50
2022-09-02T12:19:48.929Z,32.13
2022-09-02T12:22:15.465Z,56.38
2022-09-02T12:24:41.846Z,69.38
2022-09-02T12:27:08.199Z,129.20
2022-09-02T12:29:34.585Z,84.22
2022-09-02T12:32:00.968Z,74.47
2022-09-02T12:34:27.437Z,66.40
2022-09-02T12:36:53.776Z,57.75
2022-09-02T12:39:20.293Z,47.95
2022-09-02T12:41:46.947Z,38.83
2022-09-02T12:44:14.279Z,15.93
2022-09-02T12:46:40.977Z,18.13
2022-09-02T12:49:07.506Z,27.33
2022-09-02T12:51:33.809Z,30.15
2022-09-02T12:54:02.528Z,26.23
2022-09-02T12:56:29.098Z,24.33
2022-09-02T12:59:00.128Z,20.67
2022-09-02T13:01:28.339Z,20.23
2022-09-02T13:03:54.940Z,17.58
2022-09-02T13:06:21.364Z,15.73
2022-09-02T13:08:48.709Z,18.13
2022-09-02T13:11:15.055Z,17.17
2022-09-02T13:13:41.571Z,18.98
2022-09-02T13:16:08.181Z,14.15
2022-09-02T13:18:44.843Z,13.40
2022-09-02T13:21:11.288Z,15.30
2022-09-02T13:23:37.607Z,14.98
2022-09-02T13:26:03.992Z,13.30
2022-09-02T13:28:30.504Z,12.75
2022-09-02T13:30:56.994Z,12.93
2022-09-02T13:33:23.431Z,12.13
2022-09-02T13:35:49.970Z,10.45
2022-09-02T13:38:18.583Z,11.23
2022-09-02T13:40:47.378Z,12.10
2022-09-02T13:43:13.738Z,9.90
2022-09-02T13:45:40.561Z,10.65
2022-09-02T13:48:06.870Z,11.60
2022-09-02T13:50:33.301Z,10.20
2022-09-02T13:55:46.255Z,9.82
2022-09-02T13:58:12.644Z,11.05
2022-09-02T14:00:39.191Z,9.90
2022-09-02T14:03:06.269Z,10.18
2022-09-02T14:05:32.911Z,10.70
2022-09-02T14:07:59.314Z,10.13
2022-09-02T14:10:26.193Z,8.20
2022-09-02T14:12:52.830Z,8.40
2022-09-02T14:15:19.176Z,6.82
2022-09-02T14:17:45.679Z,9.40
2022-09-02T14:20:12.262Z,9.30
2022-09-02T14:22:38.586Z,8.57
2022-09-02T14:25:05.055Z,9.00
2022-09-02T14:27:31.510Z,8.57
2022-09-02T14:29:57.952Z,7.40
2022-09-02T14:32:24.456Z,8.50
2022-09-02T14:34:50.979Z,5.80
2022-09-02T14:37:17.332Z,6.03
2022-09-02T14:39:43.985Z,7.22
2022-09-02T14:42:10.404Z,6.25
2022-09-02T14:44:36.873Z,5.72
2022-09-02T14:47:03.187Z,8.35
2022-09-02T14:49:29.966Z,10.32
2022-09-02T14:51:56.392Z,8.43
2022-09-02T14:54:22.856Z,7.88
2022-09-02T14:56:49.186Z,4.95
2022-09-02T14:59:15.496Z,6.65
2022-09-02T15:01:42.086Z,6.13
2022-09-02T15:04:08.597Z,5.30
2022-09-02T15:06:35.016Z,6.35
2022-09-02T15:09:01.589Z,6.82
2022-09-02T15:11:27.878Z,5.22
2022-09-02T15:13:54.261Z,5.88
2022-09-02T15:16:20.566Z,7.38
2022-09-02T15:18:46.978Z,6.85
2022-09-02T15:21:13.412Z,7.05
2022-09-02T15:23:41.240Z,6.50
2022-09-02T15:26:07.690Z,4.28
2022-09-02T15:28:34.106Z,5.55
2022-09-02T15:31:00.663Z,5.40
2022-09-02T15:33:27.097Z,4.20
2022-09-02T15:35:53.450Z,3.97
2022-09-02T15:38:19.890Z,5.85
2022-09-02T15:40:46.352Z,4.28
2022-09-02T15:43:12.722Z,4.55
2022-09-02T15:45:39.023Z,4.07
2022-09-02T15:48:05.433Z,5.22
2022-09-02T15:50:32.011Z,4.45
2022-09-02T15:52:58.529Z,5.50
2022-09-02T15:55:29.526Z,5.90
2022-09-02T15:57:56.171Z,5.15
2022-09-02T16:00:22.500Z,4.78
2022-09-02T16:02:48.961Z,4.10
2022-09-02T16:05:15.914Z,4.30
2022-09-02T16:07:42.301Z,3.85
2022-09-02T16:10:09.458Z,3.50
2022-09-02T16:12:35.800Z,3.55
2022-09-02T16:15:02.272Z,4.28
2022-09-02T16:17:29.285Z,4.03
2022-09-02T16:19:55.924Z,3.65
2022-09-02T16:22:22.610Z,3.60
2022-09-02T16:24:48.970Z,3.03
2022-09-02T16:27:15.312Z,3.25
2022-09-02T16:29:41.647Z,3.55
2022-09-02T16:32:24.513Z,3.53
2022-09-02T16:34:55.412Z,3.05
2022-09-02T16:37:21.706Z,2.85
2022-09-02T16:39:48.048Z,13.55
2022-09-02T16:42:14.460Z,87.60
2022-09-02T16:44:40.821Z,21.65
2022-09-02T16:47:07.496Z,7.28
2022-09-02T16:49:34.074Z,3.33
2022-09-02T16:52:00.476Z,2.28
2022-09-02T16:54:31.268Z,2.83
2022-09-02T16:56:58.759Z,2.20
2022-09-02T16:59:25.190Z,1.67
2022-09-02T17:01:51.763Z,1.60
2022-09-02T17:04:18.204Z,6.07
2022-09-02T17:06:44.577Z,3.28
2022-09-02T17:09:10.878Z,3.97
2022-09-02T17:11:37.252Z,16.45
2022-09-02T17:14:03.716Z,7.03
2022-09-02T17:16:30.056Z,4.15
2022-09-02T17:18:56.592Z,3.83
2022-09-02T17:21:22.981Z,3.63
2022-09-02T17:23:49.525Z,3.95
2022-09-02T17:26:15.842Z,27.38
2022-09-02T17:28:42.277Z,161.50
2022-09-02T17:31:08.831Z,186.88
2022-09-02T17:33:35.307Z,73.07
2022-09-02T17:36:01.665Z,43.25
2022-09-02T17:38:28.037Z,19.35
2022-09-02T17:40:54.641Z,12.43
2022-09-02T17:43:21.090Z,7.88
2022-09-02T17:45:47.473Z,5.65
2022-09-02T17:48:35.755Z,5.25
2022-09-02T17:51:00.771Z,4.90
2022-09-02T17:53:30.068Z,4.47
2022-09-02T17:55:56.622Z,4.97
2022-09-02T17:58:23.113Z,5.75
2022-09-02T18:00:49.508Z,8.98
2022-09-02T18:03:20.261Z,5.45
2022-09-02T18:05:48.600Z,5.32
2022-09-02T18:08:14.912Z,6.32
2022-09-02T18:10:41.279Z,4.10
2022-09-02T18:13:07.592Z,5.97
2022-09-02T18:15:34.005Z,4.88
2022-09-02T18:18:01.563Z,12.88
2022-09-02T18:20:28.233Z,9.27
2022-09-02T18:22:54.836Z,7.82
2022-09-02T18:25:21.185Z,6.68
2022-09-02T18:27:47.672Z,9.77
2022-09-02T18:30:17.114Z,15.73
2022-09-02T18:32:43.506Z,5.45
2022-09-02T18:35:09.886Z,4.93
2022-09-02T18:37:36.566Z,3.92
2022-09-02T18:40:03.481Z,5.57
2022-09-02T18:42:30.315Z,2.47
2022-09-02T18:44:56.617Z,5.35
2022-09-02T18:47:22.997Z,2.50
2022-09-02T18:49:49.565Z,2.85
2022-09-02T18:52:15.993Z,2.50
2022-09-02T18:54:42.333Z,6.68
2022-09-02T18:57:09.010Z,7.03
2022-09-02T18:59:35.416Z,16.20
2022-09-02T19:02:01.869Z,9.60
2022-09-02T19:04:29.559Z,11.70
2022-09-02T19:06:56.196Z,9.35
2022-09-02T19:09:22.640Z,11.73
2022-09-02T19:11:49.016Z,8.80
2022-09-02T19:14:15.695Z,5.35
2022-09-02T19:16:42.354Z,10.57
2022-09-02T19:19:08.819Z,12.23
2022-09-02T19:21:35.196Z,8.68
2022-09-02T19:24:01.569Z,9.75
2022-09-02T19:26:27.945Z,5.97
2022-09-02T19:28:54.256Z,9.02
2022-09-02T19:31:20.849Z,12.32
2022-09-02T19:33:47.456Z,13.85
2022-09-02T19:36:13.886Z,8.43
2022-09-02T19:38:40.209Z,8.63
2022-09-02T19:41:06.851Z,5.53
2022-09-02T19:43:33.222Z,3.90
2022-09-02T19:45:59.776Z,5.43
2022-09-02T19:48:26.346Z,6.95
2022-09-02T19:50:52.853Z,13.52
2022-09-02T19:53:19.241Z,10.05
2022-09-02T19:55:45.811Z,35.92
2022-09-02T19:58:12.097Z,53.53
2022-09-02T20:00:40.083Z,39.85
2022-09-02T20:03:06.487Z,73.40
2022-09-02T20:05:32.825Z,111.30
2022-09-02T20:07:59.292Z,137.48
2022-09-02T20:10:27.847Z,77.50
2022-09-02T20:12:54.650Z,71.57
2022-09-02T20:15:20.986Z,121.63
2022-09-02T20:17:47.619Z,156.50
2022-09-02T20:20:14.016Z,250.48
2022-09-02T20:22:40.622Z,339.90
2022-09-02T20:25:06.922Z,205.52
2022-09-02T20:27:33.437Z,173.98
2022-09-02T20:29:59.776Z,177.00
2022-09-02T20:32:26.258Z,190.80
2022-09-02T20:34:52.564Z,178.02
2022-09-02T20:37:19.305Z,188.38
2022-09-02T20:39:45.713Z,198.23
2022-09-02T20:42:12.158Z,199.10
2022-09-02T20:44:38.474Z,207.52
2022-09-02T20:47:04.982Z,204.80
2022-09-02T20:49:31.456Z,197.35
2022-09-02T20:51:58.277Z,191.23
2022-09-02T20:54:24.613Z,204.70
2022-09-02T20:56:50.960Z,199.55
2022-09-02T20:59:17.408Z,202.30
2022-09-02T21:01:43.806Z,185.25
2022-09-02T21:04:10.309Z,183.98
2022-09-02T21:06:36.794Z,187.48
2022-09-02T21:09:03.753Z,138.40
2022-09-02T21:11:30.338Z,77.13
2022-09-02T21:13:56.663Z,54.78
2022-09-02T21:16:23.011Z,46.63
2022-09-02T21:18:49.469Z,48.35
2022-09-02T21:21:15.946Z,38.05
2022-09-02T21:23:42.542Z,45.92
2022-09-02T21:26:08.933Z,57.75
2022-09-02T21:28:35.695Z,61.13
2022-09-02T21:31:02.170Z,70.50
2022-09-02T21:33:28.541Z,68.15
2022-09-02T21:35:55.010Z,76.90
2022-09-02T21:38:21.738Z,78.03
2022-09-02T21:40:48.347Z,77.45
2022-09-02T21:43:14.678Z,80.22
2022-09-02T21:45:41.126Z,81.88
2022-09-02T21:48:07.498Z,81.65
2022-09-02T21:50:33.812Z,79.55
2022-09-02T21:53:00.228Z,77.50
2022-09-02T21:55:26.645Z,83.88
2022-09-02T21:57:54.664Z,77.10
2022-09-02T22:00:21.993Z,74.70
2022-09-02T22:02:48.532Z,76.57
2022-09-02T22:05:14.910Z,72.88
2022-09-02T22:07:41.877Z,70.90
2022-09-02T22:10:08.193Z,69.60
2022-09-02T22:12:34.617Z,70.38
2022-09-02T22:15:01.169Z,67.78
2022-09-02T22:17:27.736Z,67.72
2022-09-02T22:19:54.976Z,69.85
2022-09-02T22:22:21.334Z,65.43
2022-09-02T22:24:47.782Z,64.63
2022-09-02T22:27:14.101Z,68.10
2022-09-02T22:29:40.473Z,65.85
2022-09-02T22:32:06.823Z,64.93
2022-09-02T22:34:33.177Z,65.20
2022-09-02T22:36:59.540Z,61.72
2022-09-02T22:39:26.093Z,61.38
2022-09-02T22:41:52.546Z,62.22
2022-09-02T22:44:18.870Z,61.53
2022-09-02T22:46:45.445Z,60.17
2022-09-02T22:49:11.829Z,66.50
2022-09-02T22:51:38.686Z,61.90
2022-09-02T22:54:05.017Z,56.92
2022-09-02T22:56:31.544Z,54.15
2022-09-02T22:58:57.952Z,54.35
2022-09-02T23:01:24.567Z,51.45
2022-09-02T23:03:51.399Z,56.65
2022-09-02T23:06:17.866Z,51.42
2022-09-02T23:08:44.189Z,53.50
2022-09-02T23:11:10.950Z,54.25
2022-09-02T23:13:37.304Z,46.58
2022-09-02T23:16:03.795Z,43.15
2022-09-02T23:18:31.208Z,42.38
2022-09-02T23:20:57.540Z,38.40
2022-09-02T23:23:24.001Z,39.28
2022-09-02T23:25:51.181Z,41.70
2022-09-02T23:28:17.592Z,44.72
2022-09-02T23:30:43.953Z,41.67
2022-09-02T23:33:15.378Z,36.35
2022-09-02T23:35:42.088Z,43.05
2022-09-02T23:38:08.476Z,37.45
2022-09-02T23:40:34.848Z,36.58
2022-09-02T23:43:01.289Z,40.55
2022-09-02T23:45:27.975Z,40.65
2022-09-02T23:47:54.345Z,42.03
2022-09-02T23:50:20.793Z,41.67
2022-09-02T23:52:47.184Z,39.08
2022-09-02T23:55:13.599Z,37.22
2022-09-02T23:57:39.996Z,41.20
